sensor_id;sensor_type;location;lat;lon;timestamp;temperature;humidity
8850;DHT22;5638;50.860;4.698;2022-07-23T00:02:06;19.40;99.90
8850;DHT22;5638;50.860;4.698;2022-07-23T00:04:33;19.50;99.90
8850;DHT22;5638;50.860;4.698;2022-07-23T00:06:58;19.40;99.90
8850;DHT22;5638;50.860;4.698;2022-07-23T00:09:24;19.50;99.90
8850;DHT22;5638;50.860;4.698;2022-07-23T00:11:50;19.50;99.90
8850;DHT22;5638;50.860;4.698;2022-07-23T00:14:16;19.40;99.90
8850;DHT22;5638;50.860;4.698;2022-07-23T00:16:42;19.40;99.90
8850;DHT22;5638;50.860;4.698;2022-07-23T00:19:08;19.30;99.90
8850;DHT22;5638;50.860;4.698;2022-07-23T00:21:34;19.50;99.90
8850;DHT22;5638;50.860;4.698;2022-07-23T00:23:59;19.40;99.90
8850;DHT22;5638;50.860;4.698;2022-07-23T00:26:25;19.40;99.90
8850;DHT22;5638;50.860;4.698;2022-07-23T00:28:51;19.40;99.90
8850;DHT22;5638;50.860;4.698;2022-07-23T00:31:17;19.30;99.90
8850;DHT22;5638;50.860;4.698;2022-07-23T00:33:43;19.30;99.90
8850;DHT22;5638;50.860;4.698;2022-07-23T00:36:08;19.30;99.90
8850;DHT22;5638;50.860;4.698;2022-07-23T00:38:34;19.30;99.90
8850;DHT22;5638;50.860;4.698;2022-07-23T00:41:00;19.30;99.90
8850;DHT22;5638;50.860;4.698;2022-07-23T00:43:26;19.20;99.90
8850;DHT22;5638;50.860;4.698;2022-07-23T00:45:52;19.20;99.90
8850;DHT22;5638;50.860;4.698;2022-07-23T00:48:17;19.10;99.90
8850;DHT22;5638;50.860;4.698;2022-07-23T00:50:43;19.00;99.90
8850;DHT22;5638;50.860;4.698;2022-07-23T00:53:10;19.00;99.90
8850;DHT22;5638;50.860;4.698;2022-07-23T00:55:36;19.00;99.90
8850;DHT22;5638;50.860;4.698;2022-07-23T00:58:04;19.00;99.90
8850;DHT22;5638;50.860;4.698;2022-07-23T01:00:31;19.00;99.90
8850;DHT22;5638;50.860;4.698;2022-07-23T01:02:57;19.00;99.90
8850;DHT22;5638;50.860;4.698;2022-07-23T01:05:23;18.90;99.90
8850;DHT22;5638;50.860;4.698;2022-07-23T01:07:50;18.90;99.90
8850;DHT22;5638;50.860;4.698;2022-07-23T01:10:18;18.90;99.90
8850;DHT22;5638;50.860;4.698;2022-07-23T01:12:56;18.90;99.90
8850;DHT22;5638;50.860;4.698;2022-07-23T01:15:23;18.90;99.90
8850;DHT22;5638;50.860;4.698;2022-07-23T01:17:49;18.90;99.90
8850;DHT22;5638;50.860;4.698;2022-07-23T01:20:16;18.80;99.90
8850;DHT22;5638;50.860;4.698;2022-07-23T01:22:42;18.80;99.90
8850;DHT22;5638;50.860;4.698;2022-07-23T01:25:09;18.90;99.90
8850;DHT22;5638;50.860;4.698;2022-07-23T01:27:35;18.90;99.90
8850;DHT22;5638;50.860;4.698;2022-07-23T01:30:02;18.80;99.90
8850;DHT22;5638;50.860;4.698;2022-07-23T01:32:29;18.90;99.90
8850;DHT22;5638;50.860;4.698;2022-07-23T01:34:55;18.80;99.90
8850;DHT22;5638;50.860;4.698;2022-07-23T01:37:21;18.90;99.90
8850;DHT22;5638;50.860;4.698;2022-07-23T01:39:46;18.90;99.90
8850;DHT22;5638;50.860;4.698;2022-07-23T01:42:12;18.90;99.90
8850;DHT22;5638;50.860;4.698;2022-07-23T01:44:38;18.90;99.90
8850;DHT22;5638;50.860;4.698;2022-07-23T01:47:04;18.90;99.90
8850;DHT22;5638;50.860;4.698;2022-07-23T01:49:30;18.80;99.90
8850;DHT22;5638;50.860;4.698;2022-07-23T01:51:55;18.70;99.90
8850;DHT22;5638;50.860;4.698;2022-07-23T01:54:32;18.80;99.90
8850;DHT22;5638;50.860;4.698;2022-07-23T01:56:59;18.70;99.90
8850;DHT22;5638;50.860;4.698;2022-07-23T01:59:26;18.80;99.90
8850;DHT22;5638;50.860;4.698;2022-07-23T02:01:53;18.80;99.90
8850;DHT22;5638;50.860;4.698;2022-07-23T02:04:20;18.80;99.90
8850;DHT22;5638;50.860;4.698;2022-07-23T02:06:47;18.80;99.90
8850;DHT22;5638;50.860;4.698;2022-07-23T02:09:13;18.80;99.90
8850;DHT22;5638;50.860;4.698;2022-07-23T02:11:39;18.80;99.90
8850;DHT22;5638;50.860;4.698;2022-07-23T02:14:05;18.70;99.90
8850;DHT22;5638;50.860;4.698;2022-07-23T02:16:31;18.70;99.90
8850;DHT22;5638;50.860;4.698;2022-07-23T02:18:58;18.70;99.90
8850;DHT22;5638;50.860;4.698;2022-07-23T02:21:23;18.60;99.90
8850;DHT22;5638;50.860;4.698;2022-07-23T02:23:49;18.50;99.90
8850;DHT22;5638;50.860;4.698;2022-07-23T02:26:15;18.50;99.90
8850;DHT22;5638;50.860;4.698;2022-07-23T02:28:41;18.60;99.90
8850;DHT22;5638;50.860;4.698;2022-07-23T02:31:07;18.60;99.90
8850;DHT22;5638;50.860;4.698;2022-07-23T02:33:33;18.50;99.90
8850;DHT22;5638;50.860;4.698;2022-07-23T02:35:59;18.40;99.90
8850;DHT22;5638;50.860;4.698;2022-07-23T02:38:25;18.40;99.90
8850;DHT22;5638;50.860;4.698;2022-07-23T02:40:52;18.40;99.90
8850;DHT22;5638;50.860;4.698;2022-07-23T02:43:18;18.40;99.90
8850;DHT22;5638;50.860;4.698;2022-07-23T02:45:43;18.40;99.90
8850;DHT22;5638;50.860;4.698;2022-07-23T02:48:09;18.40;99.90
8850;DHT22;5638;50.860;4.698;2022-07-23T02:50:38;18.40;99.90
8850;DHT22;5638;50.860;4.698;2022-07-23T02:53:04;18.40;99.90
8850;DHT22;5638;50.860;4.698;2022-07-23T02:55:30;18.30;99.90
8850;DHT22;5638;50.860;4.698;2022-07-23T02:57:56;18.20;99.90
8850;DHT22;5638;50.860;4.698;2022-07-23T03:00:22;18.20;99.90
8850;DHT22;5638;50.860;4.698;2022-07-23T03:02:48;18.00;99.90
8850;DHT22;5638;50.860;4.698;2022-07-23T03:05:14;18.00;99.90
8850;DHT22;5638;50.860;4.698;2022-07-23T03:07:40;18.00;99.90
8850;DHT22;5638;50.860;4.698;2022-07-23T03:10:06;18.00;99.90
8850;DHT22;5638;50.860;4.698;2022-07-23T03:12:32;18.00;99.90
8850;DHT22;5638;50.860;4.698;2022-07-23T03:14:58;18.10;99.90
8850;DHT22;5638;50.860;4.698;2022-07-23T03:17:24;18.10;99.90
8850;DHT22;5638;50.860;4.698;2022-07-23T03:19:49;18.10;99.90
8850;DHT22;5638;50.860;4.698;2022-07-23T03:22:15;18.00;99.90
8850;DHT22;5638;50.860;4.698;2022-07-23T03:24:41;18.00;99.90
8850;DHT22;5638;50.860;4.698;2022-07-23T03:27:36;18.00;99.90
8850;DHT22;5638;50.860;4.698;2022-07-23T03:30:02;18.00;99.90
8850;DHT22;5638;50.860;4.698;2022-07-23T03:32:28;18.00;99.90
8850;DHT22;5638;50.860;4.698;2022-07-23T03:34:54;18.00;99.90
8850;DHT22;5638;50.860;4.698;2022-07-23T03:37:21;17.90;99.90
8850;DHT22;5638;50.860;4.698;2022-07-23T03:39:46;17.80;99.90
8850;DHT22;5638;50.860;4.698;2022-07-23T03:42:12;17.80;99.90
8850;DHT22;5638;50.860;4.698;2022-07-23T03:44:38;17.80;99.90
8850;DHT22;5638;50.860;4.698;2022-07-23T03:47:05;17.70;99.90
8850;DHT22;5638;50.860;4.698;2022-07-23T03:49:32;17.60;99.90
8850;DHT22;5638;50.860;4.698;2022-07-23T03:51:58;17.50;99.90
8850;DHT22;5638;50.860;4.698;2022-07-23T03:54:24;17.70;99.90
8850;DHT22;5638;50.860;4.698;2022-07-23T03:56:50;17.70;99.90
8850;DHT22;5638;50.860;4.698;2022-07-23T03:59:16;17.60;99.90
8850;DHT22;5638;50.860;4.698;2022-07-23T04:01:42;17.70;99.90
8850;DHT22;5638;50.860;4.698;2022-07-23T04:04:08;17.80;99.90
8850;DHT22;5638;50.860;4.698;2022-07-23T04:06:34;17.70;99.90
8850;DHT22;5638;50.860;4.698;2022-07-23T04:09:01;17.70;99.90
8850;DHT22;5638;50.860;4.698;2022-07-23T04:11:28;17.70;99.90
8850;DHT22;5638;50.860;4.698;2022-07-23T04:13:53;17.70;99.90
8850;DHT22;5638;50.860;4.698;2022-07-23T04:16:19;17.70;99.90
8850;DHT22;5638;50.860;4.698;2022-07-23T04:18:45;17.80;99.90
8850;DHT22;5638;50.860;4.698;2022-07-23T04:21:10;17.80;99.90
8850;DHT22;5638;50.860;4.698;2022-07-23T04:23:36;17.80;99.90
8850;DHT22;5638;50.860;4.698;2022-07-23T04:26:02;17.80;99.90
8850;DHT22;5638;50.860;4.698;2022-07-23T04:28:28;17.70;99.90
8850;DHT22;5638;50.860;4.698;2022-07-23T04:30:56;17.70;99.90
8850;DHT22;5638;50.860;4.698;2022-07-23T04:33:23;17.70;99.90
8850;DHT22;5638;50.860;4.698;2022-07-23T04:35:48;17.60;99.90
8850;DHT22;5638;50.860;4.698;2022-07-23T04:38:14;17.60;99.90
8850;DHT22;5638;50.860;4.698;2022-07-23T04:40:40;17.60;99.90
8850;DHT22;5638;50.860;4.698;2022-07-23T04:43:06;17.60;99.90
8850;DHT22;5638;50.860;4.698;2022-07-23T04:45:31;17.60;99.90
8850;DHT22;5638;50.860;4.698;2022-07-23T04:47:57;17.70;99.90
8850;DHT22;5638;50.860;4.698;2022-07-23T04:50:23;17.70;99.90
8850;DHT22;5638;50.860;4.698;2022-07-23T04:52:49;17.80;99.90
8850;DHT22;5638;50.860;4.698;2022-07-23T04:55:15;17.80;99.90
8850;DHT22;5638;50.860;4.698;2022-07-23T04:57:41;17.90;99.90
8850;DHT22;5638;50.860;4.698;2022-07-23T05:00:08;17.90;99.90
8850;DHT22;5638;50.860;4.698;2022-07-23T05:02:34;17.90;99.90
8850;DHT22;5638;50.860;4.698;2022-07-23T05:05:00;17.90;99.90
8850;DHT22;5638;50.860;4.698;2022-07-23T05:07:26;18.00;99.90
8850;DHT22;5638;50.860;4.698;2022-07-23T05:09:51;18.00;99.90
8850;DHT22;5638;50.860;4.698;2022-07-23T05:12:17;18.00;99.90
8850;DHT22;5638;50.860;4.698;2022-07-23T05:14:43;18.10;99.90
8850;DHT22;5638;50.860;4.698;2022-07-23T05:17:09;18.00;99.90
8850;DHT22;5638;50.860;4.698;2022-07-23T05:19:35;18.10;99.90
8850;DHT22;5638;50.860;4.698;2022-07-23T05:22:01;18.10;99.90
8850;DHT22;5638;50.860;4.698;2022-07-23T05:24:27;18.10;99.90
8850;DHT22;5638;50.860;4.698;2022-07-23T05:26:53;18.20;99.90
8850;DHT22;5638;50.860;4.698;2022-07-23T05:29:19;18.20;99.90
8850;DHT22;5638;50.860;4.698;2022-07-23T05:31:45;18.20;99.90
8850;DHT22;5638;50.860;4.698;2022-07-23T05:34:11;18.30;99.90
8850;DHT22;5638;50.860;4.698;2022-07-23T05:36:37;18.40;99.90
8850;DHT22;5638;50.860;4.698;2022-07-23T05:39:03;18.40;99.90
8850;DHT22;5638;50.860;4.698;2022-07-23T05:41:29;18.50;99.90
8850;DHT22;5638;50.860;4.698;2022-07-23T05:43:55;18.50;99.90
8850;DHT22;5638;50.860;4.698;2022-07-23T05:46:21;18.60;99.90
8850;DHT22;5638;50.860;4.698;2022-07-23T05:48:47;18.70;99.90
8850;DHT22;5638;50.860;4.698;2022-07-23T05:51:25;18.70;99.90
8850;DHT22;5638;50.860;4.698;2022-07-23T05:53:51;18.70;99.90
8850;DHT22;5638;50.860;4.698;2022-07-23T05:56:18;18.80;99.90
8850;DHT22;5638;50.860;4.698;2022-07-23T05:58:44;18.80;99.90
8850;DHT22;5638;50.860;4.698;2022-07-23T06:01:10;18.80;99.90
8850;DHT22;5638;50.860;4.698;2022-07-23T06:03:39;18.80;99.90
8850;DHT22;5638;50.860;4.698;2022-07-23T06:06:06;18.80;99.90
8850;DHT22;5638;50.860;4.698;2022-07-23T06:08:32;18.80;99.90
8850;DHT22;5638;50.860;4.698;2022-07-23T06:10:58;18.80;99.90
8850;DHT22;5638;50.860;4.698;2022-07-23T06:13:24;18.90;99.90
8850;DHT22;5638;50.860;4.698;2022-07-23T06:15:50;18.90;99.90
8850;DHT22;5638;50.860;4.698;2022-07-23T06:18:16;18.90;99.90
8850;DHT22;5638;50.860;4.698;2022-07-23T06:20:41;18.90;99.90
8850;DHT22;5638;50.860;4.698;2022-07-23T06:23:07;18.90;99.90
8850;DHT22;5638;50.860;4.698;2022-07-23T06:25:33;18.90;99.90
8850;DHT22;5638;50.860;4.698;2022-07-23T06:27:59;18.90;99.90
8850;DHT22;5638;50.860;4.698;2022-07-23T06:30:25;18.90;99.90
8850;DHT22;5638;50.860;4.698;2022-07-23T06:32:51;18.90;99.90
8850;DHT22;5638;50.860;4.698;2022-07-23T06:35:17;19.00;99.90
8850;DHT22;5638;50.860;4.698;2022-07-23T06:37:43;19.10;99.90
8850;DHT22;5638;50.860;4.698;2022-07-23T06:40:09;19.20;99.90
8850;DHT22;5638;50.860;4.698;2022-07-23T06:42:36;19.30;99.90
8850;DHT22;5638;50.860;4.698;2022-07-23T06:45:05;19.40;99.90
8850;DHT22;5638;50.860;4.698;2022-07-23T06:47:34;19.50;99.90
8850;DHT22;5638;50.860;4.698;2022-07-23T06:50:00;19.40;99.90
8850;DHT22;5638;50.860;4.698;2022-07-23T06:52:25;19.50;99.90
8850;DHT22;5638;50.860;4.698;2022-07-23T06:54:52;19.50;99.90
8850;DHT22;5638;50.860;4.698;2022-07-23T06:57:18;19.60;99.90
8850;DHT22;5638;50.860;4.698;2022-07-23T06:59:44;19.70;99.90
8850;DHT22;5638;50.860;4.698;2022-07-23T07:02:10;19.70;99.90
8850;DHT22;5638;50.860;4.698;2022-07-23T07:04:36;19.80;99.90
8850;DHT22;5638;50.860;4.698;2022-07-23T07:07:02;19.80;99.90
8850;DHT22;5638;50.860;4.698;2022-07-23T07:09:28;19.80;99.90
8850;DHT22;5638;50.860;4.698;2022-07-23T07:11:54;19.90;99.90
8850;DHT22;5638;50.860;4.698;2022-07-23T07:14:20;20.00;99.90
8850;DHT22;5638;50.860;4.698;2022-07-23T07:16:46;20.10;99.90
8850;DHT22;5638;50.860;4.698;2022-07-23T07:19:12;20.10;99.90
8850;DHT22;5638;50.860;4.698;2022-07-23T07:21:37;20.10;99.90
8850;DHT22;5638;50.860;4.698;2022-07-23T07:24:04;20.20;99.90
8850;DHT22;5638;50.860;4.698;2022-07-23T07:26:30;20.20;99.90
8850;DHT22;5638;50.860;4.698;2022-07-23T07:28:56;20.30;99.90
8850;DHT22;5638;50.860;4.698;2022-07-23T07:31:22;20.40;99.90
8850;DHT22;5638;50.860;4.698;2022-07-23T07:33:48;20.60;99.90
8850;DHT22;5638;50.860;4.698;2022-07-23T07:36:14;20.60;99.90
8850;DHT22;5638;50.860;4.698;2022-07-23T07:38:40;20.60;99.90
8850;DHT22;5638;50.860;4.698;2022-07-23T07:41:06;20.60;99.90
8850;DHT22;5638;50.860;4.698;2022-07-23T07:43:33;20.70;99.90
8850;DHT22;5638;50.860;4.698;2022-07-23T07:45:59;20.80;99.90
8850;DHT22;5638;50.860;4.698;2022-07-23T07:48:24;20.80;99.90
8850;DHT22;5638;50.860;4.698;2022-07-23T07:50:50;21.00;99.90
8850;DHT22;5638;50.860;4.698;2022-07-23T07:53:16;21.10;99.90
8850;DHT22;5638;50.860;4.698;2022-07-23T07:55:42;21.30;99.90
8850;DHT22;5638;50.860;4.698;2022-07-23T07:58:08;21.50;99.90
8850;DHT22;5638;50.860;4.698;2022-07-23T08:00:33;21.70;99.90
8850;DHT22;5638;50.860;4.698;2022-07-23T08:02:59;21.90;99.90
8850;DHT22;5638;50.860;4.698;2022-07-23T08:05:28;22.10;99.90
8850;DHT22;5638;50.860;4.698;2022-07-23T08:07:56;22.20;99.90
8850;DHT22;5638;50.860;4.698;2022-07-23T08:10:25;22.40;99.90
8850;DHT22;5638;50.860;4.698;2022-07-23T08:12:54;22.50;99.90
8850;DHT22;5638;50.860;4.698;2022-07-23T08:15:23;22.60;99.90
8850;DHT22;5638;50.860;4.698;2022-07-23T08:17:50;22.60;99.90
8850;DHT22;5638;50.860;4.698;2022-07-23T08:20:18;22.80;99.90
8850;DHT22;5638;50.860;4.698;2022-07-23T08:22:53;22.80;99.90
8850;DHT22;5638;50.860;4.698;2022-07-23T08:25:28;22.70;99.90
8850;DHT22;5638;50.860;4.698;2022-07-23T08:27:56;22.60;99.90
8850;DHT22;5638;50.860;4.698;2022-07-23T08:30:25;22.60;99.90
8850;DHT22;5638;50.860;4.698;2022-07-23T08:35:35;22.70;99.90
8850;DHT22;5638;50.860;4.698;2022-07-23T08:38:04;22.60;99.90
8850;DHT22;5638;50.860;4.698;2022-07-23T08:40:34;22.80;99.90
8850;DHT22;5638;50.860;4.698;2022-07-23T08:43:05;22.90;99.90
8850;DHT22;5638;50.860;4.698;2022-07-23T08:45:38;23.00;99.90
8850;DHT22;5638;50.860;4.698;2022-07-23T08:48:15;23.00;99.90
8850;DHT22;5638;50.860;4.698;2022-07-23T08:50:46;23.10;99.90
8850;DHT22;5638;50.860;4.698;2022-07-23T08:53:14;23.10;99.90
8850;DHT22;5638;50.860;4.698;2022-07-23T08:55:47;23.10;99.90
8850;DHT22;5638;50.860;4.698;2022-07-23T08:58:15;23.10;99.90
8850;DHT22;5638;50.860;4.698;2022-07-23T09:00:42;23.10;99.90
8850;DHT22;5638;50.860;4.698;2022-07-23T09:03:15;23.20;99.90
8850;DHT22;5638;50.860;4.698;2022-07-23T09:05:44;23.20;99.90
8850;DHT22;5638;50.860;4.698;2022-07-23T09:08:13;23.30;99.90
8850;DHT22;5638;50.860;4.698;2022-07-23T09:16:10;23.40;99.90
8850;DHT22;5638;50.860;4.698;2022-07-23T09:18:50;23.40;99.90
8850;DHT22;5638;50.860;4.698;2022-07-23T09:21:23;23.60;99.90
8850;DHT22;5638;50.860;4.698;2022-07-23T09:24:05;23.70;99.90
8850;DHT22;5638;50.860;4.698;2022-07-23T09:26:45;23.90;99.90
8850;DHT22;5638;50.860;4.698;2022-07-23T09:29:22;24.00;99.90
8850;DHT22;5638;50.860;4.698;2022-07-23T09:31:56;24.10;99.90
8850;DHT22;5638;50.860;4.698;2022-07-23T09:37:11;24.30;99.90
8850;DHT22;5638;50.860;4.698;2022-07-23T09:39:40;24.30;99.90
8850;DHT22;5638;50.860;4.698;2022-07-23T09:42:25;24.30;99.90
8850;DHT22;5638;50.860;4.698;2022-07-23T09:44:57;24.20;99.90
8850;DHT22;5638;50.860;4.698;2022-07-23T09:47:26;24.30;99.90
8850;DHT22;5638;50.860;4.698;2022-07-23T09:50:05;24.30;99.90
8850;DHT22;5638;50.860;4.698;2022-07-23T09:52:35;24.40;99.90
8850;DHT22;5638;50.860;4.698;2022-07-23T09:55:08;24.40;99.90
8850;DHT22;5638;50.860;4.698;2022-07-23T09:57:34;24.50;99.90
8850;DHT22;5638;50.860;4.698;2022-07-23T10:00:05;24.50;99.90
8850;DHT22;5638;50.860;4.698;2022-07-23T10:02:35;24.40;99.90
8850;DHT22;5638;50.860;4.698;2022-07-23T10:05:02;24.30;99.90
8850;DHT22;5638;50.860;4.698;2022-07-23T10:07:33;24.20;99.90
8850;DHT22;5638;50.860;4.698;2022-07-23T10:10:03;24.20;99.90
8850;DHT22;5638;50.860;4.698;2022-07-23T10:12:31;24.30;99.90
8850;DHT22;5638;50.860;4.698;2022-07-23T10:15:16;24.20;99.90
8850;DHT22;5638;50.860;4.698;2022-07-23T10:17:42;24.30;99.90
8850;DHT22;5638;50.860;4.698;2022-07-23T10:20:08;24.40;99.90
8850;DHT22;5638;50.860;4.698;2022-07-23T10:22:42;24.60;99.90
8850;DHT22;5638;50.860;4.698;2022-07-23T10:25:29;24.70;99.90
8850;DHT22;5638;50.860;4.698;2022-07-23T10:40:22;25.70;99.90
8850;DHT22;5638;50.860;4.698;2022-07-23T10:42:51;26.00;99.90
8850;DHT22;5638;50.860;4.698;2022-07-23T10:45:32;26.30;99.90
8850;DHT22;5638;50.860;4.698;2022-07-23T10:48:26;26.60;99.90
8850;DHT22;5638;50.860;4.698;2022-07-23T10:51:13;26.60;99.90
8850;DHT22;5638;50.860;4.698;2022-07-23T10:56:51;26.90;98.40
8850;DHT22;5638;50.860;4.698;2022-07-23T10:59:31;27.00;99.20
8850;DHT22;5638;50.860;4.698;2022-07-23T11:02:21;26.80;99.40
8850;DHT22;5638;50.860;4.698;2022-07-23T11:04:50;26.70;98.20
8850;DHT22;5638;50.860;4.698;2022-07-23T11:07:17;26.80;99.20
8850;DHT22;5638;50.860;4.698;2022-07-23T11:09:44;27.00;97.40
8850;DHT22;5638;50.860;4.698;2022-07-23T11:15:09;27.20;97.30
8850;DHT22;5638;50.860;4.698;2022-07-23T11:25:14;27.10;97.50
8850;DHT22;5638;50.860;4.698;2022-07-23T11:27:55;27.20;97.70
8850;DHT22;5638;50.860;4.698;2022-07-23T11:30:45;27.30;97.00
8850;DHT22;5638;50.860;4.698;2022-07-23T11:35:41;27.30;96.70
8850;DHT22;5638;50.860;4.698;2022-07-23T11:38:19;27.00;97.70
8850;DHT22;5638;50.860;4.698;2022-07-23T11:40:52;27.30;97.40
8850;DHT22;5638;50.860;4.698;2022-07-23T11:43:20;27.40;97.10
8850;DHT22;5638;50.860;4.698;2022-07-23T11:45:52;27.60;96.90
8850;DHT22;5638;50.860;4.698;2022-07-23T11:48:21;27.60;95.80
8850;DHT22;5638;50.860;4.698;2022-07-23T11:50:50;27.80;94.60
8850;DHT22;5638;50.860;4.698;2022-07-23T11:53:28;27.70;93.50
8850;DHT22;5638;50.860;4.698;2022-07-23T11:56:05;27.70;95.80
8850;DHT22;5638;50.860;4.698;2022-07-23T11:58:36;27.80;95.90
8850;DHT22;5638;50.860;4.698;2022-07-23T12:01:04;27.80;96.20
8850;DHT22;5638;50.860;4.698;2022-07-23T12:03:30;27.90;95.50
8850;DHT22;5638;50.860;4.698;2022-07-23T12:05:58;27.90;96.50
8850;DHT22;5638;50.860;4.698;2022-07-23T12:08:25;27.80;96.30
8850;DHT22;5638;50.860;4.698;2022-07-23T12:10:51;28.00;95.90
8850;DHT22;5638;50.860;4.698;2022-07-23T12:13:19;27.80;95.70
8850;DHT22;5638;50.860;4.698;2022-07-23T12:15:49;28.00;96.50
8850;DHT22;5638;50.860;4.698;2022-07-23T12:18:26;28.00;94.30
8850;DHT22;5638;50.860;4.698;2022-07-23T12:20:56;27.70;94.50
8850;DHT22;5638;50.860;4.698;2022-07-23T12:23:25;27.70;95.30
8850;DHT22;5638;50.860;4.698;2022-07-23T12:25:52;27.90;95.20
8850;DHT22;5638;50.860;4.698;2022-07-23T12:33:21;28.40;95.20
8850;DHT22;5638;50.860;4.698;2022-07-23T12:35:53;28.50;94.00
8850;DHT22;5638;50.860;4.698;2022-07-23T12:38:25;28.40;94.10
8850;DHT22;5638;50.860;4.698;2022-07-23T12:40:55;28.40;94.80
8850;DHT22;5638;50.860;4.698;2022-07-23T12:43:32;28.50;94.20
8850;DHT22;5638;50.860;4.698;2022-07-23T12:51:25;28.60;92.80
8850;DHT22;5638;50.860;4.698;2022-07-23T12:53:57;28.60;92.80
8850;DHT22;5638;50.860;4.698;2022-07-23T12:56:32;28.60;93.40
8850;DHT22;5638;50.860;4.698;2022-07-23T12:59:10;28.60;93.60
8850;DHT22;5638;50.860;4.698;2022-07-23T13:01:44;28.80;92.30
8850;DHT22;5638;50.860;4.698;2022-07-23T13:04:20;28.80;92.70
8850;DHT22;5638;50.860;4.698;2022-07-23T13:06:50;28.80;93.70
8850;DHT22;5638;50.860;4.698;2022-07-23T13:09:26;29.00;93.80
8850;DHT22;5638;50.860;4.698;2022-07-23T13:11:57;28.80;93.60
8850;DHT22;5638;50.860;4.698;2022-07-23T13:14:25;28.90;93.50
8850;DHT22;5638;50.860;4.698;2022-07-23T13:16:52;28.90;92.70
8850;DHT22;5638;50.860;4.698;2022-07-23T13:19:20;28.80;92.20
8850;DHT22;5638;50.860;4.698;2022-07-23T13:21:47;28.60;92.90
8850;DHT22;5638;50.860;4.698;2022-07-23T13:24:13;28.50;92.80
8850;DHT22;5638;50.860;4.698;2022-07-23T13:26:40;28.80;93.30
8850;DHT22;5638;50.860;4.698;2022-07-23T13:29:06;28.70;92.90
8850;DHT22;5638;50.860;4.698;2022-07-23T13:31:35;28.60;92.60
8850;DHT22;5638;50.860;4.698;2022-07-23T13:34:02;28.60;92.80
8850;DHT22;5638;50.860;4.698;2022-07-23T13:36:28;28.60;93.50
8850;DHT22;5638;50.860;4.698;2022-07-23T13:38:54;28.80;92.10
8850;DHT22;5638;50.860;4.698;2022-07-23T13:41:20;29.00;92.90
8850;DHT22;5638;50.860;4.698;2022-07-23T13:43:47;29.20;92.90
8850;DHT22;5638;50.860;4.698;2022-07-23T13:46:12;29.30;92.90
8850;DHT22;5638;50.860;4.698;2022-07-23T13:48:38;29.30;92.20
8850;DHT22;5638;50.860;4.698;2022-07-23T13:51:04;29.20;92.70
8850;DHT22;5638;50.860;4.698;2022-07-23T13:53:30;29.30;92.80
8850;DHT22;5638;50.860;4.698;2022-07-23T13:55:56;29.30;93.10
8850;DHT22;5638;50.860;4.698;2022-07-23T13:58:23;29.40;92.20
8850;DHT22;5638;50.860;4.698;2022-07-23T14:00:51;29.30;93.00
8850;DHT22;5638;50.860;4.698;2022-07-23T14:03:19;29.10;93.30
8850;DHT22;5638;50.860;4.698;2022-07-23T14:05:48;29.30;91.50
8850;DHT22;5638;50.860;4.698;2022-07-23T14:08:15;29.50;91.20
8850;DHT22;5638;50.860;4.698;2022-07-23T14:10:41;29.60;92.30
8850;DHT22;5638;50.860;4.698;2022-07-23T14:13:07;29.50;91.70
8850;DHT22;5638;50.860;4.698;2022-07-23T14:15:33;29.60;91.90
8850;DHT22;5638;50.860;4.698;2022-07-23T14:17:59;29.50;92.90
8850;DHT22;5638;50.860;4.698;2022-07-23T14:20:25;29.40;92.70
8850;DHT22;5638;50.860;4.698;2022-07-23T14:22:52;29.20;91.60
8850;DHT22;5638;50.860;4.698;2022-07-23T14:25:19;28.80;92.10
8850;DHT22;5638;50.860;4.698;2022-07-23T14:27:45;28.50;92.40
8850;DHT22;5638;50.860;4.698;2022-07-23T14:30:12;28.40;93.70
8850;DHT22;5638;50.860;4.698;2022-07-23T14:32:38;28.30;94.10
8850;DHT22;5638;50.860;4.698;2022-07-23T14:35:05;28.20;94.00
8850;DHT22;5638;50.860;4.698;2022-07-23T14:37:31;28.30;94.20
8850;DHT22;5638;50.860;4.698;2022-07-23T14:39:59;28.40;94.80
8850;DHT22;5638;50.860;4.698;2022-07-23T14:42:25;28.50;94.50
8850;DHT22;5638;50.860;4.698;2022-07-23T14:44:51;28.60;94.20
8850;DHT22;5638;50.860;4.698;2022-07-23T14:47:17;28.60;94.20
8850;DHT22;5638;50.860;4.698;2022-07-23T14:49:43;28.60;94.00
8850;DHT22;5638;50.860;4.698;2022-07-23T14:52:09;28.50;94.00
8850;DHT22;5638;50.860;4.698;2022-07-23T14:54:35;28.40;94.30
8850;DHT22;5638;50.860;4.698;2022-07-23T14:57:03;28.30;94.60
8850;DHT22;5638;50.860;4.698;2022-07-23T14:59:30;28.50;94.10
8850;DHT22;5638;50.860;4.698;2022-07-23T15:01:56;28.60;94.50
8850;DHT22;5638;50.860;4.698;2022-07-23T15:04:24;28.60;94.40
8850;DHT22;5638;50.860;4.698;2022-07-23T15:06:50;28.50;94.10
8850;DHT22;5638;50.860;4.698;2022-07-23T15:09:16;28.60;94.10
8850;DHT22;5638;50.860;4.698;2022-07-23T15:11:42;28.70;93.90
8850;DHT22;5638;50.860;4.698;2022-07-23T15:14:08;28.80;94.20
8850;DHT22;5638;50.860;4.698;2022-07-23T15:16:35;28.80;94.20
8850;DHT22;5638;50.860;4.698;2022-07-23T15:19:02;28.90;93.90
8850;DHT22;5638;50.860;4.698;2022-07-23T15:21:29;28.90;93.80
8850;DHT22;5638;50.860;4.698;2022-07-23T15:23:58;28.90;93.20
8850;DHT22;5638;50.860;4.698;2022-07-23T15:26:28;29.00;93.30
8850;DHT22;5638;50.860;4.698;2022-07-23T15:28:56;29.00;92.20
8850;DHT22;5638;50.860;4.698;2022-07-23T15:31:24;29.10;92.60
8850;DHT22;5638;50.860;4.698;2022-07-23T15:33:50;29.20;92.50
8850;DHT22;5638;50.860;4.698;2022-07-23T15:36:20;29.10;92.40
8850;DHT22;5638;50.860;4.698;2022-07-23T15:38:47;29.10;92.80
8850;DHT22;5638;50.860;4.698;2022-07-23T15:41:16;29.10;92.20
8850;DHT22;5638;50.860;4.698;2022-07-23T15:43:41;29.30;92.30
8850;DHT22;5638;50.860;4.698;2022-07-23T15:46:08;29.20;92.30
8850;DHT22;5638;50.860;4.698;2022-07-23T15:48:36;29.20;92.90
8850;DHT22;5638;50.860;4.698;2022-07-23T15:51:03;29.20;93.00
8850;DHT22;5638;50.860;4.698;2022-07-23T15:53:31;29.30;92.90
8850;DHT22;5638;50.860;4.698;2022-07-23T15:55:57;29.30;92.50
8850;DHT22;5638;50.860;4.698;2022-07-23T15:58:23;29.30;92.90
8850;DHT22;5638;50.860;4.698;2022-07-23T16:00:49;29.40;92.50
8850;DHT22;5638;50.860;4.698;2022-07-23T16:03:15;29.40;92.30
8850;DHT22;5638;50.860;4.698;2022-07-23T16:05:41;29.50;92.00
8850;DHT22;5638;50.860;4.698;2022-07-23T16:08:07;29.30;91.90
8850;DHT22;5638;50.860;4.698;2022-07-23T16:10:33;29.40;92.20
8850;DHT22;5638;50.860;4.698;2022-07-23T16:12:59;29.50;91.60
8850;DHT22;5638;50.860;4.698;2022-07-23T16:15:24;29.50;91.80
8850;DHT22;5638;50.860;4.698;2022-07-23T16:17:50;29.50;91.90
8850;DHT22;5638;50.860;4.698;2022-07-23T16:20:16;29.30;92.50
8850;DHT22;5638;50.860;4.698;2022-07-23T16:22:42;29.40;92.30
8850;DHT22;5638;50.860;4.698;2022-07-23T16:25:09;29.50;92.10
8850;DHT22;5638;50.860;4.698;2022-07-23T16:27:36;29.30;92.30
8850;DHT22;5638;50.860;4.698;2022-07-23T16:30:07;29.40;92.20
8850;DHT22;5638;50.860;4.698;2022-07-23T16:32:35;29.30;93.10
8850;DHT22;5638;50.860;4.698;2022-07-23T16:35:01;29.30;92.40
8850;DHT22;5638;50.860;4.698;2022-07-23T16:37:27;29.40;92.20
8850;DHT22;5638;50.860;4.698;2022-07-23T16:39:53;29.40;91.60
8850;DHT22;5638;50.860;4.698;2022-07-23T16:42:19;29.40;92.00
8850;DHT22;5638;50.860;4.698;2022-07-23T16:44:45;29.50;91.10
8850;DHT22;5638;50.860;4.698;2022-07-23T16:47:10;29.50;91.70
8850;DHT22;5638;50.860;4.698;2022-07-23T16:49:36;29.40;94.00
8850;DHT22;5638;50.860;4.698;2022-07-23T16:52:03;29.30;92.70
8850;DHT22;5638;50.860;4.698;2022-07-23T16:54:32;29.30;92.50
8850;DHT22;5638;50.860;4.698;2022-07-23T16:56:58;29.30;92.70